sensor_id;sensor_type;location;lat;lon;timestamp;P1;durP1;ratioP1;P2;durP2;ratioP2
47113;SDS011;32867;51.556;6.832;2023-07-31T00:04:17;5.40;;;3.63;;
47113;SDS011;32867;51.556;6.832;2023-07-31T00:09:18;7.65;;;3.97;;
47113;SDS011;32867;51.556;6.832;2023-07-31T00:14:19;14.50;;;6.32;;
47113;SDS011;32867;51.556;6.832;2023-07-31T00:19:19;11.80;;;5.90;;
47113;SDS011;32867;51.556;6.832;2023-07-31T00:24:20;13.00;;;5.43;;
47113;SDS011;32867;51.556;6.832;2023-07-31T00:29:21;15.77;;;7.18;;
47113;SDS011;32867;51.556;6.832;2023-07-31T00:34:21;14.80;;;7.40;;
47113;SDS011;32867;51.556;6.832;2023-07-31T00:39:22;17.38;;;7.22;;
47113;SDS011;32867;51.556;6.832;2023-07-31T00:44:23;17.65;;;7.35;;
47113;SDS011;32867;51.556;6.832;2023-07-31T00:49:23;15.73;;;6.63;;
47113;SDS011;32867;51.556;6.832;2023-07-31T00:54:24;15.15;;;6.82;;
47113;SDS011;32867;51.556;6.832;2023-07-31T00:59:25;18.02;;;7.00;;
47113;SDS011;32867;51.556;6.832;2023-07-31T01:04:25;13.98;;;6.40;;
47113;SDS011;32867;51.556;6.832;2023-07-31T01:14:36;14.52;;;6.00;;
47113;SDS011;32867;51.556;6.832;2023-07-31T01:19:37;13.02;;;6.13;;
47113;SDS011;32867;51.556;6.832;2023-07-31T01:34:46;13.73;;;5.18;;
47113;SDS011;32867;51.556;6.832;2023-07-31T01:39:47;15.18;;;5.97;;
47113;SDS011;32867;51.556;6.832;2023-07-31T01:44:49;13.02;;;5.10;;
47113;SDS011;32867;51.556;6.832;2023-07-31T01:49:50;14.55;;;6.05;;
47113;SDS011;32867;51.556;6.832;2023-07-31T01:54:50;13.27;;;5.53;;
47113;SDS011;32867;51.556;6.832;2023-07-31T01:59:51;13.50;;;5.28;;
47113;SDS011;32867;51.556;6.832;2023-07-31T02:04:53;13.88;;;4.90;;
47113;SDS011;32867;51.556;6.832;2023-07-31T02:09:54;13.82;;;5.30;;
47113;SDS011;32867;51.556;6.832;2023-07-31T02:14:55;15.82;;;4.88;;
47113;SDS011;32867;51.556;6.832;2023-07-31T02:19:55;11.32;;;5.05;;
47113;SDS011;32867;51.556;6.832;2023-07-31T02:24:56;14.48;;;4.82;;
47113;SDS011;32867;51.556;6.832;2023-07-31T02:29:57;19.42;;;5.20;;
47113;SDS011;32867;51.556;6.832;2023-07-31T02:34:59;14.35;;;5.82;;
47113;SDS011;32867;51.556;6.832;2023-07-31T02:40:00;13.13;;;5.40;;
47113;SDS011;32867;51.556;6.832;2023-07-31T02:45:02;15.23;;;5.82;;
47113;SDS011;32867;51.556;6.832;2023-07-31T02:50:03;18.92;;;5.63;;
47113;SDS011;32867;51.556;6.832;2023-07-31T02:55:05;14.68;;;5.20;;
47113;SDS011;32867;51.556;6.832;2023-07-31T03:00:06;15.25;;;5.72;;
47113;SDS011;32867;51.556;6.832;2023-07-31T03:05:07;15.82;;;5.68;;
47113;SDS011;32867;51.556;6.832;2023-07-31T03:10:08;15.75;;;5.30;;
47113;SDS011;32867;51.556;6.832;2023-07-31T03:15:09;14.77;;;5.03;;
47113;SDS011;32867;51.556;6.832;2023-07-31T03:20:10;16.40;;;5.80;;
47113;SDS011;32867;51.556;6.832;2023-07-31T03:25:11;15.07;;;5.97;;
47113;SDS011;32867;51.556;6.832;2023-07-31T03:30:12;16.17;;;6.22;;
47113;SDS011;32867;51.556;6.832;2023-07-31T03:35:13;14.63;;;5.85;;
47113;SDS011;32867;51.556;6.832;2023-07-31T03:40:14;14.98;;;5.82;;
47113;SDS011;32867;51.556;6.832;2023-07-31T03:45:14;14.73;;;5.28;;
47113;SDS011;32867;51.556;6.832;2023-07-31T03:50:15;15.85;;;5.45;;
47113;SDS011;32867;51.556;6.832;2023-07-31T03:55:16;14.02;;;5.25;;
47113;SDS011;32867;51.556;6.832;2023-07-31T04:00:16;18.35;;;5.97;;
47113;SDS011;32867;51.556;6.832;2023-07-31T04:05:17;15.60;;;6.07;;
47113;SDS011;32867;51.556;6.832;2023-07-31T04:10:18;21.38;;;8.20;;
47113;SDS011;32867;51.556;6.832;2023-07-31T04:15:18;17.95;;;6.20;;
47113;SDS011;32867;51.556;6.832;2023-07-31T04:20:19;14.60;;;5.88;;
47113;SDS011;32867;51.556;6.832;2023-07-31T04:25:20;17.73;;;5.90;;
47113;SDS011;32867;51.556;6.832;2023-07-31T04:30:20;12.93;;;5.40;;
47113;SDS011;32867;51.556;6.832;2023-07-31T04:35:21;14.93;;;5.57;;
47113;SDS011;32867;51.556;6.832;2023-07-31T04:40:21;18.73;;;6.90;;
47113;SDS011;32867;51.556;6.832;2023-07-31T04:45:22;21.15;;;6.35;;
47113;SDS011;32867;51.556;6.832;2023-07-31T04:50:23;17.73;;;5.80;;
47113;SDS011;32867;51.556;6.832;2023-07-31T04:55:23;18.95;;;7.20;;
47113;SDS011;32867;51.556;6.832;2023-07-31T05:00:24;26.75;;;7.35;;
47113;SDS011;32867;51.556;6.832;2023-07-31T05:05:25;16.25;;;6.53;;
47113;SDS011;32867;51.556;6.832;2023-07-31T05:10:25;15.15;;;5.82;;
47113;SDS011;32867;51.556;6.832;2023-07-31T05:15:26;13.77;;;6.15;;
47113;SDS011;32867;51.556;6.832;2023-07-31T05:20:27;17.70;;;6.90;;
47113;SDS011;32867;51.556;6.832;2023-07-31T05:25:27;15.38;;;5.80;;
47113;SDS011;32867;51.556;6.832;2023-07-31T05:30:29;15.13;;;6.38;;
47113;SDS011;32867;51.556;6.832;2023-07-31T05:35:31;10.68;;;5.47;;
47113;SDS011;32867;51.556;6.832;2023-07-31T05:40:32;15.75;;;6.40;;
47113;SDS011;32867;51.556;6.832;2023-07-31T05:45:33;14.13;;;6.53;;
47113;SDS011;32867;51.556;6.832;2023-07-31T05:50:34;16.48;;;7.35;;
47113;SDS011;32867;51.556;6.832;2023-07-31T05:55:34;17.00;;;6.60;;
47113;SDS011;32867;51.556;6.832;2023-07-31T06:00:35;13.77;;;6.65;;
47113;SDS011;32867;51.556;6.832;2023-07-31T06:05:36;12.48;;;6.00;;
47113;SDS011;32867;51.556;6.832;2023-07-31T06:10:37;13.60;;;5.95;;
47113;SDS011;32867;51.556;6.832;2023-07-31T06:15:37;9.48;;;4.57;;
47113;SDS011;32867;51.556;6.832;2023-07-31T06:20:38;9.73;;;4.55;;
47113;SDS011;32867;51.556;6.832;2023-07-31T06:25:40;15.18;;;5.97;;
47113;SDS011;32867;51.556;6.832;2023-07-31T06:30:41;11.13;;;5.72;;
47113;SDS011;32867;51.556;6.832;2023-07-31T06:35:41;13.15;;;5.93;;
47113;SDS011;32867;51.556;6.832;2023-07-31T06:40:42;11.75;;;6.15;;
47113;SDS011;32867;51.556;6.832;2023-07-31T06:45:43;13.73;;;5.80;;
47113;SDS011;32867;51.556;6.832;2023-07-31T06:50:43;10.27;;;5.53;;
47113;SDS011;32867;51.556;6.832;2023-07-31T06:55:44;10.60;;;5.82;;
47113;SDS011;32867;51.556;6.832;2023-07-31T07:00:45;10.18;;;5.20;;
47113;SDS011;32867;51.556;6.832;2023-07-31T07:05:46;10.18;;;5.68;;
47113;SDS011;32867;51.556;6.832;2023-07-31T07:10:46;10.00;;;5.57;;
47113;SDS011;32867;51.556;6.832;2023-07-31T07:15:48;9.20;;;5.47;;
47113;SDS011;32867;51.556;6.832;2023-07-31T07:20:50;10.13;;;5.78;;
47113;SDS011;32867;51.556;6.832;2023-07-31T07:25:52;8.90;;;5.20;;
47113;SDS011;32867;51.556;6.832;2023-07-31T07:30:55;10.82;;;5.82;;
47113;SDS011;32867;51.556;6.832;2023-07-31T07:35:55;8.43;;;5.28;;
47113;SDS011;32867;51.556;6.832;2023-07-31T07:41:00;8.35;;;5.00;;
47113;SDS011;32867;51.556;6.832;2023-07-31T07:46:01;9.13;;;4.80;;
47113;SDS011;32867;51.556;6.832;2023-07-31T07:51:02;9.75;;;4.78;;
47113;SDS011;32867;51.556;6.832;2023-07-31T07:56:02;11.05;;;5.40;;
47113;SDS011;32867;51.556;6.832;2023-07-31T08:01:03;7.82;;;3.40;;
47113;SDS011;32867;51.556;6.832;2023-07-31T08:06:04;7.55;;;4.55;;
47113;SDS011;32867;51.556;6.832;2023-07-31T08:11:04;7.35;;;3.92;;
47113;SDS011;32867;51.556;6.832;2023-07-31T08:16:05;7.28;;;4.05;;
47113;SDS011;32867;51.556;6.832;2023-07-31T08:21:06;5.72;;;3.53;;
47113;SDS011;32867;51.556;6.832;2023-07-31T08:26:06;6.35;;;4.13;;
47113;SDS011;32867;51.556;6.832;2023-07-31T08:31:07;8.60;;;4.22;;
47113;SDS011;32867;51.556;6.832;2023-07-31T08:36:08;5.18;;;3.33;;
47113;SDS011;32867;51.556;6.832;2023-07-31T08:41:08;8.65;;;3.45;;
47113;SDS011;32867;51.556;6.832;2023-07-31T08:46:09;5.45;;;3.40;;
47113;SDS011;32867;51.556;6.832;2023-07-31T08:51:10;6.85;;;3.90;;
47113;SDS011;32867;51.556;6.832;2023-07-31T08:56:11;7.60;;;4.30;;
47113;SDS011;32867;51.556;6.832;2023-07-31T09:01:13;5.88;;;3.78;;
47113;SDS011;32867;51.556;6.832;2023-07-31T09:06:15;6.55;;;3.38;;
47113;SDS011;32867;51.556;6.832;2023-07-31T09:11:17;5.88;;;3.35;;
47113;SDS011;32867;51.556;6.832;2023-07-31T09:16:18;7.82;;;3.78;;
47113;SDS011;32867;51.556;6.832;2023-07-31T09:21:19;6.43;;;4.05;;
47113;SDS011;32867;51.556;6.832;2023-07-31T09:26:33;6.90;;;3.90;;
47113;SDS011;32867;51.556;6.832;2023-07-31T09:31:42;10.52;;;4.78;;
47113;SDS011;32867;51.556;6.832;2023-07-31T09:36:44;7.35;;;4.60;;
47113;SDS011;32867;51.556;6.832;2023-07-31T09:41:55;8.05;;;4.93;;
47113;SDS011;32867;51.556;6.832;2023-07-31T09:46:56;7.80;;;4.70;;
47113;SDS011;32867;51.556;6.832;2023-07-31T09:51:57;7.13;;;4.25;;
47113;SDS011;32867;51.556;6.832;2023-07-31T09:56:57;7.25;;;3.80;;
47113;SDS011;32867;51.556;6.832;2023-07-31T10:02:00;7.18;;;4.47;;
47113;SDS011;32867;51.556;6.832;2023-07-31T10:07:01;7.63;;;4.13;;
47113;SDS011;32867;51.556;6.832;2023-07-31T10:12:03;6.63;;;4.13;;
47113;SDS011;32867;51.556;6.832;2023-07-31T10:17:09;7.93;;;4.57;;
47113;SDS011;32867;51.556;6.832;2023-07-31T10:22:11;6.38;;;4.40;;
47113;SDS011;32867;51.556;6.832;2023-07-31T10:27:13;8.45;;;5.10;;
47113;SDS011;32867;51.556;6.832;2023-07-31T10:32:13;9.50;;;6.18;;
47113;SDS011;32867;51.556;6.832;2023-07-31T10:42:36;6.78;;;5.20;;
47113;SDS011;32867;51.556;6.832;2023-07-31T10:47:45;8.30;;;4.40;;
47113;SDS011;32867;51.556;6.832;2023-07-31T10:52:50;8.65;;;4.85;;
47113;SDS011;32867;51.556;6.832;2023-07-31T10:57:53;7.53;;;4.53;;
47113;SDS011;32867;51.556;6.832;2023-07-31T11:08:10;7.28;;;4.65;;
47113;SDS011;32867;51.556;6.832;2023-07-31T11:13:11;8.68;;;4.80;;
47113;SDS011;32867;51.556;6.832;2023-07-31T11:18:12;10.68;;;5.03;;
47113;SDS011;32867;51.556;6.832;2023-07-31T11:23:15;7.78;;;4.57;;
47113;SDS011;32867;51.556;6.832;2023-07-31T11:28:18;7.82;;;4.10;;
47113;SDS011;32867;51.556;6.832;2023-07-31T11:33:19;7.55;;;4.05;;
47113;SDS011;32867;51.556;6.832;2023-07-31T11:38:23;6.82;;;4.47;;
47113;SDS011;32867;51.556;6.832;2023-07-31T11:43:28;7.97;;;3.90;;
47113;SDS011;32867;51.556;6.832;2023-07-31T11:48:33;9.90;;;4.97;;
47113;SDS011;32867;51.556;6.832;2023-07-31T11:53:49;9.60;;;5.20;;
47113;SDS011;32867;51.556;6.832;2023-07-31T11:58:55;9.73;;;5.07;;
47113;SDS011;32867;51.556;6.832;2023-07-31T12:03:59;9.02;;;4.82;;
47113;SDS011;32867;51.556;6.832;2023-07-31T12:09:01;10.10;;;6.13;;
47113;SDS011;32867;51.556;6.832;2023-07-31T12:14:04;7.28;;;4.70;;
47113;SDS011;32867;51.556;6.832;2023-07-31T12:19:04;9.25;;;4.50;;
47113;SDS011;32867;51.556;6.832;2023-07-31T12:24:07;9.13;;;5.10;;
47113;SDS011;32867;51.556;6.832;2023-07-31T12:29:08;6.90;;;4.40;;
47113;SDS011;32867;51.556;6.832;2023-07-31T12:34:18;8.10;;;4.30;;
47113;SDS011;32867;51.556;6.832;2023-07-31T12:39:21;5.75;;;3.70;;
47113;SDS011;32867;51.556;6.832;2023-07-31T12:44:21;5.95;;;3.95;;
47113;SDS011;32867;51.556;6.832;2023-07-31T12:49:22;6.32;;;3.65;;
47113;SDS011;32867;51.556;6.832;2023-07-31T12:54:23;6.22;;;3.05;;
47113;SDS011;32867;51.556;6.832;2023-07-31T12:59:24;6.05;;;3.65;;
47113;SDS011;32867;51.556;6.832;2023-07-31T13:04:24;4.88;;;3.22;;
47113;SDS011;32867;51.556;6.832;2023-07-31T13:09:25;5.70;;;3.40;;
47113;SDS011;32867;51.556;6.832;2023-07-31T13:14:26;5.03;;;3.45;;
47113;SDS011;32867;51.556;6.832;2023-07-31T13:19:26;7.00;;;3.95;;
47113;SDS011;32867;51.556;6.832;2023-07-31T13:24:27;5.35;;;3.80;;
47113;SDS011;32867;51.556;6.832;2023-07-31T13:29:28;6.13;;;3.45;;
47113;SDS011;32867;51.556;6.832;2023-07-31T13:34:30;5.32;;;3.15;;
47113;SDS011;32867;51.556;6.832;2023-07-31T13:39:30;6.13;;;3.67;;
47113;SDS011;32867;51.556;6.832;2023-07-31T13:44:31;7.18;;;3.97;;
47113;SDS011;32867;51.556;6.832;2023-07-31T13:49:32;6.07;;;3.47;;
47113;SDS011;32867;51.556;6.832;2023-07-31T13:54:33;6.35;;;3.63;;
47113;SDS011;32867;51.556;6.832;2023-07-31T13:59:34;8.20;;;3.60;;
47113;SDS011;32867;51.556;6.832;2023-07-31T14:04:35;5.30;;;3.30;;
47113;SDS011;32867;51.556;6.832;2023-07-31T14:09:35;7.95;;;3.72;;
47113;SDS011;32867;51.556;6.832;2023-07-31T14:14:36;6.28;;;4.13;;
47113;SDS011;32867;51.556;6.832;2023-07-31T14:19:36;7.32;;;4.05;;
47113;SDS011;32867;51.556;6.832;2023-07-31T14:24:37;6.65;;;3.80;;
47113;SDS011;32867;51.556;6.832;2023-07-31T14:29:38;8.55;;;4.15;;
47113;SDS011;32867;51.556;6.832;2023-07-31T14:34:39;9.00;;;4.70;;
47113;SDS011;32867;51.556;6.832;2023-07-31T14:39:39;7.45;;;4.22;;
47113;SDS011;32867;51.556;6.832;2023-07-31T14:44:40;6.20;;;3.85;;
47113;SDS011;32867;51.556;6.832;2023-07-31T14:49:41;9.68;;;4.03;;
47113;SDS011;32867;51.556;6.832;2023-07-31T14:54:41;8.75;;;4.55;;
47113;SDS011;32867;51.556;6.832;2023-07-31T14:59:42;8.15;;;5.00;;
47113;SDS011;32867;51.556;6.832;2023-07-31T15:04:43;8.80;;;4.32;;
47113;SDS011;32867;51.556;6.832;2023-07-31T15:09:44;10.18;;;4.72;;
47113;SDS011;32867;51.556;6.832;2023-07-31T15:14:45;9.25;;;4.75;;
47113;SDS011;32867;51.556;6.832;2023-07-31T15:19:46;9.57;;;5.40;;
47113;SDS011;32867;51.556;6.832;2023-07-31T15:24:46;8.50;;;4.60;;
47113;SDS011;32867;51.556;6.832;2023-07-31T15:29:49;6.30;;;3.90;;
47113;SDS011;32867;51.556;6.832;2023-07-31T15:34:51;7.80;;;4.43;;
47113;SDS011;32867;51.556;6.832;2023-07-31T15:39:52;8.07;;;4.55;;
47113;SDS011;32867;51.556;6.832;2023-07-31T15:44:52;9.07;;;4.55;;
47113;SDS011;32867;51.556;6.832;2023-07-31T15:49:53;8.70;;;4.22;;
47113;SDS011;32867;51.556;6.832;2023-07-31T15:54:54;9.57;;;4.38;;
47113;SDS011;32867;51.556;6.832;2023-07-31T15:59:55;7.32;;;5.13;;
47113;SDS011;32867;51.556;6.832;2023-07-31T16:04:55;8.23;;;4.30;;
47113;SDS011;32867;51.556;6.832;2023-07-31T16:09:56;7.45;;;4.10;;
47113;SDS011;32867;51.556;6.832;2023-07-31T16:14:57;8.35;;;4.75;;
47113;SDS011;32867;51.556;6.832;2023-07-31T16:19:59;8.02;;;4.60;;
47113;SDS011;32867;51.556;6.832;2023-07-31T16:25:00;7.90;;;4.75;;
47113;SDS011;32867;51.556;6.832;2023-07-31T16:30:00;8.73;;;5.13;;
47113;SDS011;32867;51.556;6.832;2023-07-31T16:35:01;8.25;;;4.80;;
47113;SDS011;32867;51.556;6.832;2023-07-31T16:40:03;8.23;;;4.78;;
47113;SDS011;32867;51.556;6.832;2023-07-31T16:45:04;8.30;;;4.60;;
47113;SDS011;32867;51.556;6.832;2023-07-31T16:50:07;9.70;;;4.97;;
47113;SDS011;32867;51.556;6.832;2023-07-31T16:55:08;8.75;;;4.70;;
47113;SDS011;32867;51.556;6.832;2023-07-31T17:00:10;10.88;;;4.85;;
47113;SDS011;32867;51.556;6.832;2023-07-31T17:05:12;7.07;;;4.32;;
47113;SDS011;32867;51.556;6.832;2023-07-31T17:10:13;7.10;;;4.07;;
47113;SDS011;32867;51.556;6.832;2023-07-31T17:15:14;8.18;;;4.30;;
47113;SDS011;32867;51.556;6.832;2023-07-31T17:20:15;6.15;;;3.60;;
47113;SDS011;32867;51.556;6.832;2023-07-31T17:25:18;10.55;;;4.07;;
47113;SDS011;32867;51.556;6.832;2023-07-31T17:30:19;8.43;;;4.10;;
47113;SDS011;32867;51.556;6.832;2023-07-31T17:35:20;6.13;;;3.40;;
47113;SDS011;32867;51.556;6.832;2023-07-31T17:40:20;5.90;;;3.85;;
47113;SDS011;32867;51.556;6.832;2023-07-31T17:45:21;6.60;;;3.58;;
47113;SDS011;32867;51.556;6.832;2023-07-31T17:50:22;8.07;;;3.42;;
47113;SDS011;32867;51.556;6.832;2023-07-31T17:55:22;9.13;;;3.80;;
47113;SDS011;32867;51.556;6.832;2023-07-31T18:00:23;5.03;;;3.00;;
47113;SDS011;32867;51.556;6.832;2023-07-31T18:05:24;6.05;;;2.97;;
47113;SDS011;32867;51.556;6.832;2023-07-31T18:10:25;5.20;;;3.17;;
47113;SDS011;32867;51.556;6.832;2023-07-31T18:15:28;6.70;;;3.25;;
47113;SDS011;32867;51.556;6.832;2023-07-31T18:20:28;6.85;;;2.80;;
47113;SDS011;32867;51.556;6.832;2023-07-31T18:25:29;5.50;;;2.80;;
47113;SDS011;32867;51.556;6.832;2023-07-31T18:30:30;5.75;;;2.90;;
47113;SDS011;32867;51.556;6.832;2023-07-31T18:35:31;7.93;;;3.10;;
47113;SDS011;32867;51.556;6.832;2023-07-31T18:40:37;5.68;;;2.80;;
47113;SDS011;32867;51.556;6.832;2023-07-31T18:45:37;3.78;;;2.30;;
47113;SDS011;32867;51.556;6.832;2023-07-31T18:50:41;4.93;;;2.83;;
47113;SDS011;32867;51.556;6.832;2023-07-31T18:55:45;4.93;;;2.63;;
47113;SDS011;32867;51.556;6.832;2023-07-31T19:00:46;6.03;;;2.60;;
47113;SDS011;32867;51.556;6.832;2023-07-31T19:05:49;4.80;;;2.42;;
47113;SDS011;32867;51.556;6.832;2023-07-31T19:10:51;4.82;;;2.22;;
47113;SDS011;32867;51.556;6.832;2023-07-31T19:15:52;4.22;;;2.45;;
47113;SDS011;32867;51.556;6.832;2023-07-31T19:20:53;4.15;;;2.08;;
47113;SDS011;32867;51.556;6.832;2023-07-31T19:25:55;3.90;;;2.08;;
47113;SDS011;32867;51.556;6.832;2023-07-31T19:30:55;4.93;;;2.25;;
47113;SDS011;32867;51.556;6.832;2023-07-31T19:35:57;3.20;;;1.80;;
47113;SDS011;32867;51.556;6.832;2023-07-31T19:40:59;3.25;;;1.83;;
47113;SDS011;32867;51.556;6.832;2023-07-31T19:46:03;3.03;;;1.73;;
47113;SDS011;32867;51.556;6.832;2023-07-31T19:51:03;3.63;;;1.80;;
47113;SDS011;32867;51.556;6.832;2023-07-31T19:56:07;3.30;;;1.73;;
47113;SDS011;32867;51.556;6.832;2023-07-31T20:01:09;3.13;;;1.83;;
47113;SDS011;32867;51.556;6.832;2023-07-31T20:06:09;3.25;;;1.60;;
47113;SDS011;32867;51.556;6.832;2023-07-31T20:11:10;3.75;;;2.05;;
47113;SDS011;32867;51.556;6.832;2023-07-31T20:16:12;3.65;;;1.88;;
47113;SDS011;32867;51.556;6.832;2023-07-31T20:21:12;4.53;;;2.55;;
47113;SDS011;32867;51.556;6.832;2023-07-31T20:26:13;3.22;;;1.85;;
47113;SDS011;32867;51.556;6.832;2023-07-31T20:31:14;4.57;;;2.75;;
47113;SDS011;32867;51.556;6.832;2023-07-31T20:36:16;5.55;;;2.67;;
47113;SDS011;32867;51.556;6.832;2023-07-31T20:41:17;5.05;;;3.20;;
47113;SDS011;32867;51.556;6.832;2023-07-31T20:46:18;4.88;;;2.88;;
47113;SDS011;32867;51.556;6.832;2023-07-31T20:51:19;4.50;;;2.72;;
47113;SDS011;32867;51.556;6.832;2023-07-31T20:56:20;4.95;;;3.00;;
47113;SDS011;32867;51.556;6.832;2023-07-31T21:01:21;8.63;;;3.80;;
47113;SDS011;32867;51.556;6.832;2023-07-31T21:06:22;5.30;;;2.90;;
47113;SDS011;32867;51.556;6.832;2023-07-31T21:11:23;3.90;;;2.20;;
47113;SDS011;32867;51.556;6.832;2023-07-31T21:16:23;5.22;;;2.30;;
47113;SDS011;32867;51.556;6.832;2023-07-31T21:21:25;3.70;;;2.08;;
47113;SDS011;32867;51.556;6.832;2023-07-31T21:26:26;3.40;;;2.00;;
47113;SDS011;32867;51.556;6.832;2023-07-31T21:31:27;4.10;;;2.05;;
47113;SDS011;32867;51.556;6.832;2023-07-31T21:36:28;6.53;;;2.05;;
47113;SDS011;32867;51.556;6.832;2023-07-31T21:41:28;5.53;;;3.45;;
47113;SDS011;32867;51.556;6.832;2023-07-31T21:46:29;4.20;;;1.65;;
47113;SDS011;32867;51.556;6.832;2023-07-31T21:51:30;1.92;;;1.30;;
47113;SDS011;32867;51.556;6.832;2023-07-31T21:56:30;2.97;;;1.15;;
47113;SDS011;32867;51.556;6.832;2023-07-31T22:01:31;2.00;;;1.40;;
47113;SDS011;32867;51.556;6.832;2023-07-31T22:06:32;1.48;;;1.00;;
47113;SDS011;32867;51.556;6.832;2023-07-31T22:11:32;2.55;;;1.50;;
47113;SDS011;32867;51.556;6.832;2023-07-31T22:16:33;1.83;;;1.30;;
47113;SDS011;32867;51.556;6.832;2023-07-31T22:21:35;3.13;;;1.70;;
47113;SDS011;32867;51.556;6.832;2023-07-31T22:26:37;2.33;;;1.50;;
47113;SDS011;32867;51.556;6.832;2023-07-31T22:31:37;2.75;;;1.80;;
47113;SDS011;32867;51.556;6.832;2023-07-31T22:36:38;3.55;;;1.73;;
47113;SDS011;32867;51.556;6.832;2023-07-31T22:41:39;2.63;;;1.60;;
47113;SDS011;32867;51.556;6.832;2023-07-31T22:46:39;3.03;;;1.70;;
47113;SDS011;32867;51.556;6.832;2023-07-31T22:51:40;3.38;;;1.80;;
47113;SDS011;32867;51.556;6.832;2023-07-31T22:56:41;2.45;;;1.50;;
47113;SDS011;32867;51.556;6.832;2023-07-31T23:01:42;2.90;;;1.55;;
47113;SDS011;32867;51.556;6.832;2023-07-31T23:06:42;3.38;;;1.70;;
47113;SDS011;32867;51.556;6.832;2023-07-31T23:11:44;2.20;;;1.25;;
47113;SDS011;32867;51.556;6.832;2023-07-31T23:16:46;2.38;;;1.50;;
47113;SDS011;32867;51.556;6.832;2023-07-31T23:21:47;1.48;;;1.15;;
47113;SDS011;32867;51.556;6.832;2023-07-31T23:26:47;3.15;;;1.40;;
47113;SDS011;32867;51.556;6.832;2023-07-31T23:31:48;1.70;;;1.17;;
47113;SDS011;32867;51.556;6.832;2023-07-31T23:36:48;4.32;;;1.15;;
47113;SDS011;32867;51.556;6.832;2023-07-31T23:41:50;2.13;;;1.15;;
47113;SDS011;32867;51.556;6.832;2023-07-31T23:46:52;2.45;;;1.35;;
47113;SDS011;32867;51.556;6.832;2023-07-31T23:51:53;2.47;;;1.25;;
47113;SDS011;32867;51.556;6.832;2023-07-31T23:56:54;4.90;;;2.10;;
